Aviation Digital Data Service (ADDS)

Output produced by METARs form (2344 UTC 03 July 2015)
found at http://www.aviationweather.gov/adds/metars/
 
KLGA 032320Z 0400/0424 17006KT P6SM FEW070 BKN200 
     FM040800 08005KT P6SM OVC100 
     FM041400 06012KT P6SM SCT035 OVC060 
     PROB30 0414/0420 5SM -RA BKN035 
     FM042000 04007KT P6SM BKN060